sensor_id;sensor_type;location;lat;lon;timestamp;temperature;humidity
21353;DHT22;10834;52.268;6.770;2023-09-19T00:02:08;15.70;99.90
21353;DHT22;10834;52.268;6.770;2023-09-19T00:04:52;15.60;99.90
21353;DHT22;10834;52.268;6.770;2023-09-19T00:07:38;15.60;99.90
21353;DHT22;10834;52.268;6.770;2023-09-19T00:10:22;15.50;99.90
21353;DHT22;10834;52.268;6.770;2023-09-19T00:13:09;15.50;99.90
21353;DHT22;10834;52.268;6.770;2023-09-19T00:15:56;15.50;99.90
21353;DHT22;10834;52.268;6.770;2023-09-19T00:18:42;15.40;99.90
21353;DHT22;10834;52.268;6.770;2023-09-19T00:21:27;15.40;99.90
21353;DHT22;10834;52.268;6.770;2023-09-19T00:24:13;15.40;99.90
21353;DHT22;10834;52.268;6.770;2023-09-19T00:26:58;15.40;99.90
21353;DHT22;10834;52.268;6.770;2023-09-19T00:29:43;15.30;99.90
21353;DHT22;10834;52.268;6.770;2023-09-19T00:32:27;15.40;99.90
21353;DHT22;10834;52.268;6.770;2023-09-19T00:35:15;15.40;99.90
21353;DHT22;10834;52.268;6.770;2023-09-19T00:38:00;15.40;99.90
21353;DHT22;10834;52.268;6.770;2023-09-19T00:40:45;15.30;99.90
21353;DHT22;10834;52.268;6.770;2023-09-19T00:43:30;15.30;99.90
21353;DHT22;10834;52.268;6.770;2023-09-19T00:46:18;15.30;99.90
21353;DHT22;10834;52.268;6.770;2023-09-19T00:49:02;15.30;99.90
21353;DHT22;10834;52.268;6.770;2023-09-19T00:51:47;15.30;99.90
21353;DHT22;10834;52.268;6.770;2023-09-19T00:54:32;15.30;99.90
21353;DHT22;10834;52.268;6.770;2023-09-19T00:57:17;15.30;99.90
21353;DHT22;10834;52.268;6.770;2023-09-19T01:00:07;15.30;99.90
21353;DHT22;10834;52.268;6.770;2023-09-19T01:02:52;15.30;99.90
21353;DHT22;10834;52.268;6.770;2023-09-19T01:05:37;15.20;99.90
21353;DHT22;10834;52.268;6.770;2023-09-19T01:08:21;15.10;99.90
21353;DHT22;10834;52.268;6.770;2023-09-19T01:11:18;15.10;99.90
21353;DHT22;10834;52.268;6.770;2023-09-19T01:17:38;15.10;99.90
21353;DHT22;10834;52.268;6.770;2023-09-19T01:20:50;15.00;99.90
21353;DHT22;10834;52.268;6.770;2023-09-19T01:24:10;15.00;99.90
21353;DHT22;10834;52.268;6.770;2023-09-19T01:30:13;14.90;99.90
21353;DHT22;10834;52.268;6.770;2023-09-19T01:32:59;14.90;99.90
21353;DHT22;10834;52.268;6.770;2023-09-19T01:35:43;14.90;99.90
21353;DHT22;10834;52.268;6.770;2023-09-19T01:38:28;14.80;99.90
21353;DHT22;10834;52.268;6.770;2023-09-19T01:41:17;14.90;99.90
21353;DHT22;10834;52.268;6.770;2023-09-19T01:44:09;14.90;99.90
21353;DHT22;10834;52.268;6.770;2023-09-19T01:46:58;14.90;99.90
21353;DHT22;10834;52.268;6.770;2023-09-19T01:49:55;14.80;99.90
21353;DHT22;10834;52.268;6.770;2023-09-19T01:52:54;14.80;99.90
21353;DHT22;10834;52.268;6.770;2023-09-19T01:55:44;14.80;99.90
21353;DHT22;10834;52.268;6.770;2023-09-19T01:58:43;14.80;99.90
21353;DHT22;10834;52.268;6.770;2023-09-19T02:01:30;14.80;99.90
21353;DHT22;10834;52.268;6.770;2023-09-19T02:04:15;14.80;99.90
21353;DHT22;10834;52.268;6.770;2023-09-19T02:06:59;14.80;99.90
21353;DHT22;10834;52.268;6.770;2023-09-19T02:09:44;14.80;99.90
21353;DHT22;10834;52.268;6.770;2023-09-19T02:12:29;14.80;99.90
21353;DHT22;10834;52.268;6.770;2023-09-19T02:15:15;14.70;99.90
21353;DHT22;10834;52.268;6.770;2023-09-19T02:17:59;14.70;99.90
21353;DHT22;10834;52.268;6.770;2023-09-19T02:20:44;14.70;99.90
21353;DHT22;10834;52.268;6.770;2023-09-19T02:23:28;14.70;99.90
21353;DHT22;10834;52.268;6.770;2023-09-19T02:26:14;14.70;99.90
21353;DHT22;10834;52.268;6.770;2023-09-19T02:28:58;14.70;99.90
21353;DHT22;10834;52.268;6.770;2023-09-19T02:31:43;14.60;99.90
21353;DHT22;10834;52.268;6.770;2023-09-19T02:34:28;14.60;99.90
21353;DHT22;10834;52.268;6.770;2023-09-19T02:37:13;14.60;99.90
21353;DHT22;10834;52.268;6.770;2023-09-19T02:39:57;14.60;99.90
21353;DHT22;10834;52.268;6.770;2023-09-19T02:42:42;14.60;99.90
21353;DHT22;10834;52.268;6.770;2023-09-19T02:45:31;14.60;99.90
21353;DHT22;10834;52.268;6.770;2023-09-19T02:48:16;14.60;99.90
21353;DHT22;10834;52.268;6.770;2023-09-19T02:51:00;14.50;99.90
21353;DHT22;10834;52.268;6.770;2023-09-19T02:53:45;14.50;99.90
21353;DHT22;10834;52.268;6.770;2023-09-19T02:56:31;14.50;99.90
21353;DHT22;10834;52.268;6.770;2023-09-19T02:59:16;14.50;99.90
21353;DHT22;10834;52.268;6.770;2023-09-19T03:02:01;14.50;99.90
21353;DHT22;10834;52.268;6.770;2023-09-19T03:04:47;14.40;99.90
21353;DHT22;10834;52.268;6.770;2023-09-19T03:07:32;14.40;99.90
21353;DHT22;10834;52.268;6.770;2023-09-19T03:10:20;14.40;99.90
21353;DHT22;10834;52.268;6.770;2023-09-19T03:13:04;14.40;99.90
21353;DHT22;10834;52.268;6.770;2023-09-19T03:15:49;14.40;99.90
21353;DHT22;10834;52.268;6.770;2023-09-19T03:18:34;14.30;99.90
21353;DHT22;10834;52.268;6.770;2023-09-19T03:21:18;14.30;99.90
21353;DHT22;10834;52.268;6.770;2023-09-19T03:24:03;14.30;99.90
21353;DHT22;10834;52.268;6.770;2023-09-19T03:26:48;14.30;99.90
21353;DHT22;10834;52.268;6.770;2023-09-19T03:29:32;14.30;99.90
21353;DHT22;10834;52.268;6.770;2023-09-19T03:32:17;14.30;99.90
21353;DHT22;10834;52.268;6.770;2023-09-19T03:35:03;14.30;99.90
21353;DHT22;10834;52.268;6.770;2023-09-19T03:37:50;14.30;99.90
21353;DHT22;10834;52.268;6.770;2023-09-19T03:40:36;14.30;99.90
21353;DHT22;10834;52.268;6.770;2023-09-19T03:43:21;14.30;99.90
21353;DHT22;10834;52.268;6.770;2023-09-19T03:46:05;14.30;99.90
21353;DHT22;10834;52.268;6.770;2023-09-19T03:48:51;14.30;99.90
21353;DHT22;10834;52.268;6.770;2023-09-19T03:51:36;14.30;99.90
21353;DHT22;10834;52.268;6.770;2023-09-19T03:54:21;14.30;99.90
21353;DHT22;10834;52.268;6.770;2023-09-19T03:57:05;14.30;99.90
21353;DHT22;10834;52.268;6.770;2023-09-19T03:59:50;14.30;99.90
21353;DHT22;10834;52.268;6.770;2023-09-19T04:02:38;14.30;99.90
21353;DHT22;10834;52.268;6.770;2023-09-19T04:05:23;14.30;99.90
21353;DHT22;10834;52.268;6.770;2023-09-19T04:08:08;14.30;99.90
21353;DHT22;10834;52.268;6.770;2023-09-19T04:10:52;14.30;99.90
21353;DHT22;10834;52.268;6.770;2023-09-19T04:13:37;14.30;99.90
21353;DHT22;10834;52.268;6.770;2023-09-19T04:16:21;14.20;99.90
21353;DHT22;10834;52.268;6.770;2023-09-19T04:19:05;14.20;99.90
21353;DHT22;10834;52.268;6.770;2023-09-19T04:21:49;14.20;99.90
21353;DHT22;10834;52.268;6.770;2023-09-19T04:24:34;14.10;99.90
21353;DHT22;10834;52.268;6.770;2023-09-19T04:27:18;14.10;99.90
21353;DHT22;10834;52.268;6.770;2023-09-19T04:30:03;14.00;99.90
21353;DHT22;10834;52.268;6.770;2023-09-19T04:32:53;14.00;99.90
21353;DHT22;10834;52.268;6.770;2023-09-19T04:35:37;14.00;99.90
21353;DHT22;10834;52.268;6.770;2023-09-19T04:38:23;13.90;99.90
21353;DHT22;10834;52.268;6.770;2023-09-19T04:41:07;13.90;99.90
21353;DHT22;10834;52.268;6.770;2023-09-19T04:43:52;13.80;99.90
21353;DHT22;10834;52.268;6.770;2023-09-19T04:46:36;13.80;99.90
21353;DHT22;10834;52.268;6.770;2023-09-19T04:49:20;13.80;99.90
21353;DHT22;10834;52.268;6.770;2023-09-19T04:52:05;13.80;99.90
21353;DHT22;10834;52.268;6.770;2023-09-19T04:54:49;13.80;99.90
21353;DHT22;10834;52.268;6.770;2023-09-19T04:57:33;13.80;99.90
21353;DHT22;10834;52.268;6.770;2023-09-19T05:00:21;13.80;99.90
21353;DHT22;10834;52.268;6.770;2023-09-19T05:03:08;13.80;99.90
21353;DHT22;10834;52.268;6.770;2023-09-19T05:05:53;13.80;99.90
21353;DHT22;10834;52.268;6.770;2023-09-19T05:08:37;13.80;99.90
21353;DHT22;10834;52.268;6.770;2023-09-19T05:11:22;13.80;99.90
21353;DHT22;10834;52.268;6.770;2023-09-19T05:14:07;13.90;99.90
21353;DHT22;10834;52.268;6.770;2023-09-19T05:16:51;13.80;99.90
21353;DHT22;10834;52.268;6.770;2023-09-19T05:19:35;13.80;99.90
21353;DHT22;10834;52.268;6.770;2023-09-19T05:22:20;13.90;99.90
21353;DHT22;10834;52.268;6.770;2023-09-19T05:25:05;13.90;99.90
21353;DHT22;10834;52.268;6.770;2023-09-19T05:27:53;13.90;99.90
21353;DHT22;10834;52.268;6.770;2023-09-19T05:30:38;13.90;99.90
21353;DHT22;10834;52.268;6.770;2023-09-19T05:33:22;13.80;99.90
21353;DHT22;10834;52.268;6.770;2023-09-19T05:36:06;13.80;99.90
21353;DHT22;10834;52.268;6.770;2023-09-19T05:38:53;13.70;99.90
21353;DHT22;10834;52.268;6.770;2023-09-19T05:41:37;13.70;99.90
21353;DHT22;10834;52.268;6.770;2023-09-19T05:44:23;13.70;99.90
21353;DHT22;10834;52.268;6.770;2023-09-19T05:47:08;13.80;99.90
21353;DHT22;10834;52.268;6.770;2023-09-19T05:49:52;13.80;99.90
21353;DHT22;10834;52.268;6.770;2023-09-19T05:52:38;13.80;99.90
21353;DHT22;10834;52.268;6.770;2023-09-19T05:55:22;13.90;99.90
21353;DHT22;10834;52.268;6.770;2023-09-19T05:58:09;13.90;99.90
21353;DHT22;10834;52.268;6.770;2023-09-19T06:00:54;13.90;99.90
21353;DHT22;10834;52.268;6.770;2023-09-19T06:03:39;14.00;99.90
21353;DHT22;10834;52.268;6.770;2023-09-19T06:06:23;14.10;99.90
21353;DHT22;10834;52.268;6.770;2023-09-19T06:09:08;14.20;99.90
21353;DHT22;10834;52.268;6.770;2023-09-19T06:11:52;14.20;99.90
21353;DHT22;10834;52.268;6.770;2023-09-19T06:14:36;14.30;99.90
21353;DHT22;10834;52.268;6.770;2023-09-19T06:17:20;14.30;99.90
21353;DHT22;10834;52.268;6.770;2023-09-19T06:20:07;14.30;99.90
21353;DHT22;10834;52.268;6.770;2023-09-19T06:22:57;14.30;99.90
21353;DHT22;10834;52.268;6.770;2023-09-19T06:25:42;14.40;99.90
21353;DHT22;10834;52.268;6.770;2023-09-19T06:28:27;14.30;99.90
21353;DHT22;10834;52.268;6.770;2023-09-19T06:31:12;14.40;99.90
21353;DHT22;10834;52.268;6.770;2023-09-19T06:33:56;14.30;99.90
21353;DHT22;10834;52.268;6.770;2023-09-19T06:36:41;14.30;99.90
21353;DHT22;10834;52.268;6.770;2023-09-19T06:39:25;14.30;99.90
21353;DHT22;10834;52.268;6.770;2023-09-19T06:42:09;14.30;99.90
21353;DHT22;10834;52.268;6.770;2023-09-19T06:44:54;14.30;99.90
21353;DHT22;10834;52.268;6.770;2023-09-19T06:47:40;14.30;99.90
21353;DHT22;10834;52.268;6.770;2023-09-19T06:50:25;14.40;99.90
21353;DHT22;10834;52.268;6.770;2023-09-19T06:53:09;14.40;99.90
21353;DHT22;10834;52.268;6.770;2023-09-19T06:55:54;14.50;99.90
21353;DHT22;10834;52.268;6.770;2023-09-19T06:58:38;14.60;99.90
21353;DHT22;10834;52.268;6.770;2023-09-19T07:01:22;14.60;99.90
21353;DHT22;10834;52.268;6.770;2023-09-19T07:04:06;14.80;99.90
21353;DHT22;10834;52.268;6.770;2023-09-19T07:06:50;14.90;99.90
21353;DHT22;10834;52.268;6.770;2023-09-19T07:09:35;15.00;99.90
21353;DHT22;10834;52.268;6.770;2023-09-19T07:12:19;15.10;99.90
21353;DHT22;10834;52.268;6.770;2023-09-19T07:15:04;15.30;99.90
21353;DHT22;10834;52.268;6.770;2023-09-19T07:17:50;15.40;99.90
21353;DHT22;10834;52.268;6.770;2023-09-19T07:20:34;15.50;99.90
21353;DHT22;10834;52.268;6.770;2023-09-19T07:23:19;15.70;99.90
21353;DHT22;10834;52.268;6.770;2023-09-19T07:26:04;15.80;99.90
21353;DHT22;10834;52.268;6.770;2023-09-19T07:28:49;15.90;99.90
21353;DHT22;10834;52.268;6.770;2023-09-19T07:31:34;15.90;99.90
21353;DHT22;10834;52.268;6.770;2023-09-19T07:34:18;16.00;99.90
21353;DHT22;10834;52.268;6.770;2023-09-19T07:37:03;16.10;99.90
21353;DHT22;10834;52.268;6.770;2023-09-19T07:39:47;16.30;99.90
21353;DHT22;10834;52.268;6.770;2023-09-19T07:42:31;16.30;99.90
21353;DHT22;10834;52.268;6.770;2023-09-19T07:45:16;16.40;99.90
21353;DHT22;10834;52.268;6.770;2023-09-19T07:48:01;16.50;99.90
21353;DHT22;10834;52.268;6.770;2023-09-19T07:50:48;16.60;99.90
21353;DHT22;10834;52.268;6.770;2023-09-19T07:53:33;16.80;99.90
21353;DHT22;10834;52.268;6.770;2023-09-19T07:56:21;16.90;99.90
21353;DHT22;10834;52.268;6.770;2023-09-19T07:59:06;17.40;99.90
21353;DHT22;10834;52.268;6.770;2023-09-19T08:01:50;17.90;99.90
21353;DHT22;10834;52.268;6.770;2023-09-19T08:04:36;18.00;99.90
21353;DHT22;10834;52.268;6.770;2023-09-19T08:07:20;18.20;99.90
21353;DHT22;10834;52.268;6.770;2023-09-19T08:10:05;18.30;99.90
21353;DHT22;10834;52.268;6.770;2023-09-19T08:12:57;18.30;99.90
21353;DHT22;10834;52.268;6.770;2023-09-19T08:15:43;18.40;99.90
21353;DHT22;10834;52.268;6.770;2023-09-19T08:18:28;18.50;99.90
21353;DHT22;10834;52.268;6.770;2023-09-19T08:21:14;18.80;99.90
21353;DHT22;10834;52.268;6.770;2023-09-19T08:23:58;19.30;99.90
21353;DHT22;10834;52.268;6.770;2023-09-19T08:26:42;19.50;99.90
21353;DHT22;10834;52.268;6.770;2023-09-19T08:29:27;20.10;99.90
21353;DHT22;10834;52.268;6.770;2023-09-19T08:32:14;21.10;99.90
21353;DHT22;10834;52.268;6.770;2023-09-19T08:34:59;21.80;99.90
21353;DHT22;10834;52.268;6.770;2023-09-19T08:37:43;22.80;99.90
21353;DHT22;10834;52.268;6.770;2023-09-19T08:40:30;23.20;99.60
21353;DHT22;10834;52.268;6.770;2023-09-19T08:43:17;24.40;94.50
21353;DHT22;10834;52.268;6.770;2023-09-19T08:48:57;27.60;68.80
21353;DHT22;10834;52.268;6.770;2023-09-19T08:51:46;27.90;61.50
21353;DHT22;10834;52.268;6.770;2023-09-19T08:54:35;29.30;60.40
21353;DHT22;10834;52.268;6.770;2023-09-19T08:57:23;30.60;56.50
21353;DHT22;10834;52.268;6.770;2023-09-19T09:00:08;30.30;53.60
21353;DHT22;10834;52.268;6.770;2023-09-19T09:02:57;30.70;52.80
21353;DHT22;10834;52.268;6.770;2023-09-19T09:05:43;31.00;51.50
21353;DHT22;10834;52.268;6.770;2023-09-19T09:08:31;29.20;52.00
21353;DHT22;10834;52.268;6.770;2023-09-19T09:11:16;28.90;54.30
21353;DHT22;10834;52.268;6.770;2023-09-19T09:14:01;29.90;53.70
21353;DHT22;10834;52.268;6.770;2023-09-19T09:16:45;29.90;51.80
21353;DHT22;10834;52.268;6.770;2023-09-19T09:19:33;29.90;52.30
21353;DHT22;10834;52.268;6.770;2023-09-19T09:22:17;29.10;51.50
21353;DHT22;10834;52.268;6.770;2023-09-19T09:25:02;28.20;52.50
21353;DHT22;10834;52.268;6.770;2023-09-19T09:27:59;27.10;55.20
21353;DHT22;10834;52.268;6.770;2023-09-19T09:30:44;26.50;56.60
21353;DHT22;10834;52.268;6.770;2023-09-19T09:33:29;26.40;58.50
21353;DHT22;10834;52.268;6.770;2023-09-19T09:36:14;26.70;58.80
21353;DHT22;10834;52.268;6.770;2023-09-19T09:38:59;26.70;56.40
21353;DHT22;10834;52.268;6.770;2023-09-19T09:41:50;26.50;57.70
21353;DHT22;10834;52.268;6.770;2023-09-19T09:44:35;26.70;57.90
21353;DHT22;10834;52.268;6.770;2023-09-19T09:50:35;26.60;58.80
21353;DHT22;10834;52.268;6.770;2023-09-19T09:53:39;26.90;58.70
21353;DHT22;10834;52.268;6.770;2023-09-19T09:56:24;27.50;57.70
21353;DHT22;10834;52.268;6.770;2023-09-19T09:59:08;28.10;56.20
21353;DHT22;10834;52.268;6.770;2023-09-19T10:01:53;28.30;55.40
21353;DHT22;10834;52.268;6.770;2023-09-19T10:04:38;28.30;55.50
21353;DHT22;10834;52.268;6.770;2023-09-19T10:07:30;27.90;55.50
21353;DHT22;10834;52.268;6.770;2023-09-19T10:10:37;28.40;55.50
21353;DHT22;10834;52.268;6.770;2023-09-19T10:13:28;28.50;55.70
21353;DHT22;10834;52.268;6.770;2023-09-19T10:16:16;28.20;52.90
21353;DHT22;10834;52.268;6.770;2023-09-19T10:19:06;27.60;55.10
21353;DHT22;10834;52.268;6.770;2023-09-19T10:21:54;27.10;57.70
21353;DHT22;10834;52.268;6.770;2023-09-19T10:24:40;26.50;57.90
21353;DHT22;10834;52.268;6.770;2023-09-19T10:27:26;26.10;59.10
21353;DHT22;10834;52.268;6.770;2023-09-19T10:30:11;25.90;59.10
21353;DHT22;10834;52.268;6.770;2023-09-19T10:33:04;25.50;58.80
21353;DHT22;10834;52.268;6.770;2023-09-19T10:35:50;25.30;60.50
21353;DHT22;10834;52.268;6.770;2023-09-19T10:38:43;25.10;62.30
21353;DHT22;10834;52.268;6.770;2023-09-19T10:41:31;24.80;62.30
21353;DHT22;10834;52.268;6.770;2023-09-19T10:44:28;24.70;61.70
21353;DHT22;10834;52.268;6.770;2023-09-19T10:47:14;24.50;63.40
21353;DHT22;10834;52.268;6.770;2023-09-19T10:49:59;24.40;63.20
21353;DHT22;10834;52.268;6.770;2023-09-19T10:52:45;24.10;60.80
21353;DHT22;10834;52.268;6.770;2023-09-19T10:55:31;23.70;60.60
21353;DHT22;10834;52.268;6.770;2023-09-19T10:58:26;23.40;64.00
21353;DHT22;10834;52.268;6.770;2023-09-19T11:01:13;23.10;64.40
21353;DHT22;10834;52.268;6.770;2023-09-19T11:04:35;22.80;65.90
21353;DHT22;10834;52.268;6.770;2023-09-19T11:07:20;22.40;66.30
21353;DHT22;10834;52.268;6.770;2023-09-19T11:10:04;22.20;67.50
21353;DHT22;10834;52.268;6.770;2023-09-19T11:12:48;22.20;68.20
21353;DHT22;10834;52.268;6.770;2023-09-19T11:27:10;22.30;73.30
21353;DHT22;10834;52.268;6.770;2023-09-19T11:30:26;22.00;74.90
21353;DHT22;10834;52.268;6.770;2023-09-19T11:33:28;21.90;76.40
21353;DHT22;10834;52.268;6.770;2023-09-19T11:36:17;21.70;72.50
21353;DHT22;10834;52.268;6.770;2023-09-19T11:39:25;21.60;76.70
21353;DHT22;10834;52.268;6.770;2023-09-19T11:42:45;21.70;79.00
21353;DHT22;10834;52.268;6.770;2023-09-19T11:48:31;21.70;81.60
21353;DHT22;10834;52.268;6.770;2023-09-19T11:51:26;21.60;83.60
21353;DHT22;10834;52.268;6.770;2023-09-19T11:54:11;21.50;84.80
21353;DHT22;10834;52.268;6.770;2023-09-19T11:57:02;21.40;85.00
21353;DHT22;10834;52.268;6.770;2023-09-19T11:59:47;21.30;88.70
21353;DHT22;10834;52.268;6.770;2023-09-19T12:02:39;21.30;91.50
21353;DHT22;10834;52.268;6.770;2023-09-19T12:05:31;21.30;91.00
21353;DHT22;10834;52.268;6.770;2023-09-19T12:08:17;21.20;91.20
21353;DHT22;10834;52.268;6.770;2023-09-19T12:11:05;21.00;91.00
21353;DHT22;10834;52.268;6.770;2023-09-19T12:13:52;20.90;93.30
21353;DHT22;10834;52.268;6.770;2023-09-19T12:16:37;20.70;93.90
21353;DHT22;10834;52.268;6.770;2023-09-19T12:19:22;20.60;94.80
21353;DHT22;10834;52.268;6.770;2023-09-19T12:22:07;20.30;94.70
21353;DHT22;10834;52.268;6.770;2023-09-19T12:24:53;20.20;95.90
21353;DHT22;10834;52.268;6.770;2023-09-19T12:27:46;20.10;97.70
21353;DHT22;10834;52.268;6.770;2023-09-19T12:30:31;20.10;98.10
21353;DHT22;10834;52.268;6.770;2023-09-19T12:33:20;20.10;98.50
21353;DHT22;10834;52.268;6.770;2023-09-19T12:36:24;20.10;99.20
21353;DHT22;10834;52.268;6.770;2023-09-19T12:39:24;20.50;97.60
21353;DHT22;10834;52.268;6.770;2023-09-19T12:42:10;20.80;96.10
21353;DHT22;10834;52.268;6.770;2023-09-19T12:44:58;20.80;96.70
21353;DHT22;10834;52.268;6.770;2023-09-19T12:51:19;20.80;96.90
21353;DHT22;10834;52.268;6.770;2023-09-19T12:54:06;20.70;96.30
21353;DHT22;10834;52.268;6.770;2023-09-19T12:56:52;20.60;96.80
21353;DHT22;10834;52.268;6.770;2023-09-19T12:59:38;20.60;95.10
21353;DHT22;10834;52.268;6.770;2023-09-19T13:02:22;20.60;95.60
21353;DHT22;10834;52.268;6.770;2023-09-19T13:05:08;20.60;96.10
21353;DHT22;10834;52.268;6.770;2023-09-19T13:07:54;20.60;96.80
21353;DHT22;10834;52.268;6.770;2023-09-19T13:14:17;20.70;98.10
21353;DHT22;10834;52.268;6.770;2023-09-19T13:17:04;20.80;98.80
21353;DHT22;10834;52.268;6.770;2023-09-19T13:19:51;20.80;98.60
21353;DHT22;10834;52.268;6.770;2023-09-19T13:22:45;20.80;98.40
21353;DHT22;10834;52.268;6.770;2023-09-19T13:25:33;20.60;97.30
21353;DHT22;10834;52.268;6.770;2023-09-19T13:28:17;20.40;96.70
21353;DHT22;10834;52.268;6.770;2023-09-19T13:31:01;20.20;95.40
21353;DHT22;10834;52.268;6.770;2023-09-19T13:33:48;20.10;98.20
21353;DHT22;10834;52.268;6.770;2023-09-19T13:36:32;20.00;98.70
21353;DHT22;10834;52.268;6.770;2023-09-19T13:39:17;19.90;99.90
21353;DHT22;10834;52.268;6.770;2023-09-19T13:42:01;19.80;99.90
21353;DHT22;10834;52.268;6.770;2023-09-19T13:44:47;19.70;99.90
21353;DHT22;10834;52.268;6.770;2023-09-19T13:47:32;19.60;99.90
21353;DHT22;10834;52.268;6.770;2023-09-19T13:50:17;19.50;99.90
21353;DHT22;10834;52.268;6.770;2023-09-19T13:53:08;19.50;99.90
21353;DHT22;10834;52.268;6.770;2023-09-19T13:55:53;19.40;99.90
21353;DHT22;10834;52.268;6.770;2023-09-19T13:58:37;19.40;99.90
21353;DHT22;10834;52.268;6.770;2023-09-19T14:01:22;19.30;99.90
21353;DHT22;10834;52.268;6.770;2023-09-19T14:04:06;19.30;99.90
21353;DHT22;10834;52.268;6.770;2023-09-19T14:06:50;19.30;99.90
21353;DHT22;10834;52.268;6.770;2023-09-19T14:09:35;19.30;99.90
21353;DHT22;10834;52.268;6.770;2023-09-19T14:12:19;19.30;99.90
21353;DHT22;10834;52.268;6.770;2023-09-19T14:15:04;19.30;99.90
21353;DHT22;10834;52.268;6.770;2023-09-19T14:17:49;19.30;99.90
21353;DHT22;10834;52.268;6.770;2023-09-19T14:20:33;19.30;99.90
21353;DHT22;10834;52.268;6.770;2023-09-19T14:23:21;19.20;99.90
21353;DHT22;10834;52.268;6.770;2023-09-19T14:26:07;19.20;99.90
21353;DHT22;10834;52.268;6.770;2023-09-19T14:28:51;19.10;99.90
21353;DHT22;10834;52.268;6.770;2023-09-19T14:31:37;19.20;99.90
21353;DHT22;10834;52.268;6.770;2023-09-19T14:34:22;19.10;99.90
21353;DHT22;10834;52.268;6.770;2023-09-19T14:37:06;19.10;99.90
21353;DHT22;10834;52.268;6.770;2023-09-19T14:39:50;19.10;99.90
21353;DHT22;10834;52.268;6.770;2023-09-19T14:42:38;19.00;99.90
21353;DHT22;10834;52.268;6.770;2023-09-19T14:45:22;19.00;99.90
21353;DHT22;10834;52.268;6.770;2023-09-19T14:48:09;19.10;99.90
21353;DHT22;10834;52.268;6.770;2023-09-19T14:50:53;19.10;99.90
21353;DHT22;10834;52.268;6.770;2023-09-19T14:53:39;19.10;99.90
21353;DHT22;10834;52.268;6.770;2023-09-19T14:56:24;19.20;99.90
21353;DHT22;10834;52.268;6.770;2023-09-19T14:59:09;19.30;99.90
21353;DHT22;10834;52.268;6.770;2023-09-19T15:01:54;19.40;99.90
21353;DHT22;10834;52.268;6.770;2023-09-19T15:04:39;19.50;99.90
21353;DHT22;10834;52.268;6.770;2023-09-19T15:07:24;19.60;99.90
21353;DHT22;10834;52.268;6.770;2023-09-19T15:10:10;19.60;99.90
21353;DHT22;10834;52.268;6.770;2023-09-19T15:12:57;19.60;99.90
21353;DHT22;10834;52.268;6.770;2023-09-19T15:15:41;19.60;99.90
21353;DHT22;10834;52.268;6.770;2023-09-19T15:18:28;19.70;99.90
21353;DHT22;10834;52.268;6.770;2023-09-19T15:21:15;19.70;99.90
21353;DHT22;10834;52.268;6.770;2023-09-19T15:23:59;19.60;99.90
21353;DHT22;10834;52.268;6.770;2023-09-19T15:26:43;19.50;99.90
21353;DHT22;10834;52.268;6.770;2023-09-19T15:29:29;19.40;99.90
21353;DHT22;10834;52.268;6.770;2023-09-19T15:32:13;19.40;99.90
21353;DHT22;10834;52.268;6.770;2023-09-19T15:34:57;19.30;99.90
21353;DHT22;10834;52.268;6.770;2023-09-19T15:37:41;19.30;99.90
21353;DHT22;10834;52.268;6.770;2023-09-19T15:40:26;19.20;99.90
21353;DHT22;10834;52.268;6.770;2023-09-19T15:43:11;19.20;99.90
21353;DHT22;10834;52.268;6.770;2023-09-19T15:45:56;19.20;99.90
21353;DHT22;10834;52.268;6.770;2023-09-19T15:48:40;19.20;99.90
21353;DHT22;10834;52.268;6.770;2023-09-19T15:51:24;19.10;99.90
21353;DHT22;10834;52.268;6.770;2023-09-19T15:54:12;19.10;99.90
21353;DHT22;10834;52.268;6.770;2023-09-19T15:56:59;19.10;99.90
21353;DHT22;10834;52.268;6.770;2023-09-19T15:59:43;19.00;99.90
21353;DHT22;10834;52.268;6.770;2023-09-19T16:02:30;19.00;99.90
21353;DHT22;10834;52.268;6.770;2023-09-19T16:05:15;19.00;99.90
21353;DHT22;10834;52.268;6.770;2023-09-19T16:08:03;18.90;99.90
21353;DHT22;10834;52.268;6.770;2023-09-19T16:10:48;18.90;99.90
21353;DHT22;10834;52.268;6.770;2023-09-19T16:13:32;18.90;99.90
21353;DHT22;10834;52.268;6.770;2023-09-19T16:16:18;18.80;99.90
21353;DHT22;10834;52.268;6.770;2023-09-19T16:19:04;18.80;99.90
21353;DHT22;10834;52.268;6.770;2023-09-19T16:21:51;18.80;99.90
21353;DHT22;10834;52.268;6.770;2023-09-19T16:24:35;18.70;99.90
21353;DHT22;10834;52.268;6.770;2023-09-19T16:27:19;18.70;99.90
21353;DHT22;10834;52.268;6.770;2023-09-19T16:30:05;18.70;99.90
21353;DHT22;10834;52.268;6.770;2023-09-19T16:32:53;18.70;99.90
21353;DHT22;10834;52.268;6.770;2023-09-19T16:35:37;18.60;99.90
21353;DHT22;10834;52.268;6.770;2023-09-19T16:38:25;18.60;99.90
21353;DHT22;10834;52.268;6.770;2023-09-19T16:41:09;18.60;99.90
21353;DHT22;10834;52.268;6.770;2023-09-19T16:43:56;18.60;99.90
21353;DHT22;10834;52.268;6.770;2023-09-19T16:46:41;18.60;99.90
21353;DHT22;10834;52.268;6.770;2023-09-19T16:49:27;18.60;99.90
21353;DHT22;10834;52.268;6.770;2023-09-19T16:52:12;18.60;99.90
21353;DHT22;10834;52.268;6.770;2023-09-19T16:54:56;18.50;99.90
21353;DHT22;10834;52.268;6.770;2023-09-19T16:57:41;18.50;99.90
21353;DHT22;10834;52.268;6.770;2023-09-19T17:00:26;18.50;99.90
21353;DHT22;10834;52.268;6.770;2023-09-19T17:03:12;18.50;99.90
21353;DHT22;10834;52.268;6.770;2023-09-19T17:05:57;18.50;99.90
21353;DHT22;10834;52.268;6.770;2023-09-19T17:08:43;18.50;99.90
21353;DHT22;10834;52.268;6.770;2023-09-19T17:11:28;18.50;99.90
21353;DHT22;10834;52.268;6.770;2023-09-19T17:14:13;18.50;99.90
21353;DHT22;10834;52.268;6.770;2023-09-19T17:16:57;18.40;99.90
21353;DHT22;10834;52.268;6.770;2023-09-19T17:19:40;18.40;99.90
21353;DHT22;10834;52.268;6.770;2023-09-19T17:22:25;18.40;99.90
21353;DHT22;10834;52.268;6.770;2023-09-19T17:25:09;18.40;99.90
21353;DHT22;10834;52.268;6.770;2023-09-19T17:27:54;18.40;99.90
21353;DHT22;10834;52.268;6.770;2023-09-19T17:30:38;18.40;99.90
21353;DHT22;10834;52.268;6.770;2023-09-19T17:33:24;18.40;99.90
21353;DHT22;10834;52.268;6.770;2023-09-19T17:36:13;18.40;99.90
21353;DHT22;10834;52.268;6.770;2023-09-19T17:39:00;18.40;99.90
21353;DHT22;10834;52.268;6.770;2023-09-19T17:41:48;18.30;99.90
21353;DHT22;10834;52.268;6.770;2023-09-19T17:44:33;18.30;99.90
21353;DHT22;10834;52.268;6.770;2023-09-19T17:47:20;18.30;99.90
21353;DHT22;10834;52.268;6.770;2023-09-19T17:50:06;18.30;99.90
21353;DHT22;10834;52.268;6.770;2023-09-19T17:52:53;18.30;99.90
21353;DHT22;10834;52.268;6.770;2023-09-19T17:55:37;18.30;99.90
21353;DHT22;10834;52.268;6.770;2023-09-19T17:58:23;18.20;99.90
21353;DHT22;10834;52.268;6.770;2023-09-19T18:01:17;18.20;99.90
21353;DHT22;10834;52.268;6.770;2023-09-19T18:04:03;18.20;99.90
21353;DHT22;10834;52.268;6.770;2023-09-19T18:06:48;18.20;99.90